Time;durP1;ratioP1;P1;durP2;ratioP2;P2;SDS_P1;SDS_P2;PMS_P1;PMS_P2;Temp;Humidity;BMP_temperature;BMP_pressure;BME280_temperature;BME280_humidity;BME280_pressure;Samples;Min_cycle;Max_cycle;Signal;HPM_P1;HPM_P2
2022/04/28 00:01:02;;;;;;;11.32;3.17;;;6.20;99.90;;;;;;5012172;28;20057;-67
2022/04/28 00:03:27;;;;;;;10.57;3.88;;;6.20;99.90;;;;;;5012897;28;20491;-67
2022/04/28 00:05:53;;;;;;;10.80;3.35;;;6.20;99.90;;;;;;5012610;28;20477;-67
2022/04/28 00:08:18;;;;;;;9.85;3.22;;;6.10;99.90;;;;;;5010965;28;20503;-67
2022/04/28 00:10:44;;;;;;;23.05;3.15;;;6.10;99.90;;;;;;5012137;28;20403;-67
2022/04/28 00:13:13;;;;;;;7.43;2.38;;;6.10;99.90;;;;;;5013027;28;20092;-67
2022/04/28 00:15:39;;;;;;;17.67;4.28;;;6.10;99.90;;;;;;4990340;28;20038;-67
2022/04/28 00:18:05;;;;;;;8.50;2.90;;;6.00;99.90;;;;;;5012211;28;20037;-67
2022/04/28 00:20:31;;;;;;;7.78;2.55;;;6.00;99.90;;;;;;5012814;28;20029;-68
2022/04/28 00:22:56;;;;;;;7.03;2.72;;;6.00;99.90;;;;;;5041927;28;20454;-67
2022/04/28 00:25:23;;;;;;;5.53;1.92;;;5.90;99.90;;;;;;5010682;28;20045;-67
2022/04/28 00:27:49;;;;;;;8.07;2.88;;;5.90;99.90;;;;;;5011520;28;20060;-67
2022/04/28 00:30:15;;;;;;;7.38;2.95;;;5.90;99.90;;;;;;5011339;28;20658;-67
2022/04/28 00:32:40;;;;;;;9.30;3.22;;;5.90;99.90;;;;;;5009791;28;20120;-67
2022/04/28 00:35:06;;;;;;;5.43;3.13;;;5.80;99.90;;;;;;5009993;28;20850;-68
2022/04/28 00:37:32;;;;;;;8.68;3.55;;;5.80;99.90;;;;;;5010792;28;20045;-68
2022/04/28 00:39:58;;;;;;;9.55;3.33;;;5.80;99.90;;;;;;5041226;28;20117;-67
2022/04/28 00:42:23;;;;;;;7.82;3.20;;;5.80;99.90;;;;;;5010219;28;20041;-67
2022/04/28 00:44:49;;;;;;;5.28;2.70;;;5.80;99.90;;;;;;5036500;28;20053;-67
2022/04/28 00:47:15;;;;;;;6.68;2.95;;;5.80;99.90;;;;;;5011173;28;20044;-67
2022/04/28 00:52:28;;;;;;;6.25;2.47;;;5.70;99.90;;;;;;5012700;28;20054;-68
2022/04/28 00:54:55;;;;;;;7.53;3.00;;;5.70;99.90;;;;;;5012474;28;20065;-67
2022/04/28 00:57:22;;;;;;;8.60;2.88;;;5.70;99.90;;;;;;5011145;28;20061;-67
2022/04/28 00:59:49;;;;;;;6.05;2.67;;;5.70;99.90;;;;;;5010684;28;20121;-67
2022/04/28 01:02:17;;;;;;;7.53;2.50;;;5.60;99.90;;;;;;5010237;28;20077;-67
2022/04/28 01:04:42;;;;;;;11.75;3.00;;;5.60;99.90;;;;;;5011955;28;20042;-68
2022/04/28 01:07:08;;;;;;;11.80;3.63;;;5.60;99.90;;;;;;5010556;28;20044;-67
2022/04/28 01:09:37;;;;;;;6.78;3.15;;;5.70;99.90;;;;;;5010653;28;20593;-67
2022/04/28 01:12:15;;;;;;;11.88;5.53;;;5.70;99.90;;;;;;5010788;28;20488;-67
2022/04/28 01:14:42;;;;;;;9.07;3.83;;;5.70;99.90;;;;;;5038730;28;20041;-67
2022/04/28 01:17:07;;;;;;;5.82;2.97;;;5.70;99.90;;;;;;5040013;28;20042;-67
2022/04/28 01:19:33;;;;;;;9.18;3.53;;;5.80;99.90;;;;;;5009908;28;20045;-67
2022/04/28 01:21:59;;;;;;;11.15;3.80;;;5.80;99.90;;;;;;5012146;28;20037;-67
2022/04/28 01:24:24;;;;;;;8.77;3.38;;;5.90;99.90;;;;;;5038214;28;20471;-67
2022/04/28 01:26:53;;;;;;;12.55;3.33;;;5.90;99.90;;;;;;5041458;28;20491;-67
2022/04/28 01:29:18;;;;;;;11.70;3.28;;;6.00;99.90;;;;;;5011109;28;20045;-68
2022/04/28 01:31:44;;;;;;;5.95;2.78;;;6.00;99.90;;;;;;5010999;28;20038;-67
2022/04/28 01:34:09;;;;;;;8.45;2.42;;;6.10;99.90;;;;;;5009546;28;20045;-67
2022/04/28 01:36:35;;;;;;;6.07;3.00;;;6.10;99.90;;;;;;5011014;28;20096;-67
2022/04/28 01:39:00;;;;;;;5.45;2.80;;;6.20;99.90;;;;;;5010896;28;20041;-67
2022/04/28 01:41:26;;;;;;;10.88;3.35;;;6.20;99.90;;;;;;5011817;28;20112;-67
2022/04/28 01:43:52;;;;;;;5.80;3.50;;;6.20;99.90;;;;;;5009855;28;20449;-67
2022/04/28 01:46:18;;;;;;;7.65;3.13;;;6.30;99.90;;;;;;5011510;28;20436;-68
2022/04/28 01:48:44;;;;;;;10.40;3.00;;;6.40;99.90;;;;;;5009411;28;20088;-68
2022/04/28 01:56:38;;;;;;;9.35;2.75;;;6.50;99.90;;;;;;5008788;28;20045;-68
2022/04/28 01:59:03;;;;;;;8.15;2.92;;;6.50;99.90;;;;;;5012746;28;20037;-68
2022/04/28 02:01:29;;;;;;;9.15;2.88;;;6.60;99.90;;;;;;5009258;28;20033;-68
2022/04/28 02:03:55;;;;;;;9.82;2.92;;;6.60;99.90;;;;;;5010383;28;20435;-68
2022/04/28 02:06:20;;;;;;;8.15;2.83;;;6.60;99.90;;;;;;5009357;28;20049;-68
2022/04/28 02:08:46;;;;;;;15.00;3.20;;;6.70;99.90;;;;;;5012750;28;20069;-67
2022/04/28 02:11:12;;;;;;;9.05;2.55;;;6.80;99.90;;;;;;5010406;28;20065;-67
2022/04/28 02:13:37;;;;;;;9.50;2.60;;;6.80;99.90;;;;;;5016309;28;20073;-67
2022/04/28 02:16:03;;;;;;;8.18;2.60;;;6.90;99.90;;;;;;5014144;28;20079;-67
2022/04/28 02:18:29;;;;;;;8.82;2.88;;;6.90;99.90;;;;;;5013669;28;20049;-67
2022/04/28 02:20:54;;;;;;;9.95;2.05;;;6.90;99.90;;;;;;5013655;28;20038;-67
2022/04/28 02:23:20;;;;;;;5.93;2.38;;;6.90;99.90;;;;;;5014011;28;20086;-67
2022/04/28 02:25:45;;;;;;;12.23;2.63;;;6.90;99.90;;;;;;5014363;28;20126;-67
2022/04/28 02:28:11;;;;;;;6.70;2.15;;;7.00;99.90;;;;;;5013028;28;20133;-67
2022/04/28 02:30:36;;;;;;;10.02;2.42;;;7.00;99.90;;;;;;5013979;28;20049;-67
2022/04/28 02:33:11;;;;;;;8.75;2.45;;;7.10;99.90;;;;;;5015179;28;20452;-67
2022/04/28 02:35:39;;;;;;;10.13;2.28;;;7.10;99.90;;;;;;5013248;28;20037;-67
2022/04/28 02:38:06;;;;;;;7.55;2.00;;;7.10;99.90;;;;;;5012810;28;20049;-67
2022/04/28 02:40:32;;;;;;;8.63;2.42;;;7.20;99.90;;;;;;5012809;28;20113;-67
2022/04/28 02:42:57;;;;;;;8.00;2.30;;;7.20;99.90;;;;;;5016712;28;20188;-67
2022/04/28 02:45:23;;;;;;;8.02;2.40;;;7.20;99.90;;;;;;5013408;28;20045;-67
2022/04/28 02:47:48;;;;;;;9.73;2.47;;;7.30;99.90;;;;;;5013763;28;20045;-67
2022/04/28 02:50:29;;;;;;;10.75;3.00;;;7.30;99.90;;;;;;5015232;28;20132;-67
2022/04/28 02:52:55;;;;;;;7.20;1.80;;;7.30;99.90;;;;;;5013814;28;20045;-67
2022/04/28 02:55:20;;;;;;;9.88;2.35;;;7.30;99.90;;;;;;5012916;28;20040;-67
2022/04/28 02:57:46;;;;;;;9.75;2.13;;;7.30;99.90;;;;;;5013765;28;20042;-67
2022/04/28 03:00:12;;;;;;;9.52;2.00;;;7.40;99.90;;;;;;5015159;28;20046;-67
2022/04/28 03:02:38;;;;;;;9.07;1.92;;;7.40;99.90;;;;;;5013167;28;20547;-67
2022/04/28 03:05:04;;;;;;;7.15;1.73;;;7.40;99.90;;;;;;5012749;28;20370;-67
2022/04/28 03:13:03;;;;;;;11.52;2.30;;;7.40;99.90;;;;;;5040631;28;20540;-67
2022/04/28 03:15:28;;;;;;;4.75;1.77;;;7.40;99.90;;;;;;5013281;28;20041;-67
2022/04/28 03:17:54;;;;;;;9.02;2.95;;;7.40;99.90;;;;;;5012975;28;20038;-67
2022/04/28 03:20:20;;;;;;;7.97;1.70;;;7.40;99.90;;;;;;5012544;28;20034;-67
2022/04/28 03:22:45;;;;;;;5.80;2.20;;;7.40;99.90;;;;;;5012651;28;20780;-67
2022/04/28 03:25:11;;;;;;;4.05;1.60;;;7.50;99.90;;;;;;5012188;28;20053;-67
2022/04/28 03:27:36;;;;;;;5.70;1.80;;;7.50;99.90;;;;;;5014178;28;20049;-67
2022/04/28 03:30:03;;;;;;;9.55;2.38;;;7.50;99.90;;;;;;5014508;28;20054;-67
2022/04/28 03:32:29;;;;;;;11.77;1.95;;;7.50;99.90;;;;;;5011464;28;20073;-67
2022/04/28 03:34:55;;;;;;;8.88;2.33;;;7.50;99.90;;;;;;5013368;28;20038;-67
2022/04/28 03:37:20;;;;;;;7.32;2.00;;;7.50;99.90;;;;;;5014283;28;20124;-67
2022/04/28 03:39:46;;;;;;;9.30;1.85;;;7.60;99.90;;;;;;5011259;28;20046;-67
2022/04/28 03:42:11;;;;;;;12.23;2.65;;;7.60;99.90;;;;;;5012992;28;20034;-67
2022/04/28 03:44:37;;;;;;;7.85;1.75;;;7.50;99.90;;;;;;5013238;28;20121;-67
2022/04/28 03:47:03;;;;;;;7.00;1.85;;;7.60;99.90;;;;;;5012537;28;20038;-67
2022/04/28 03:49:29;;;;;;;9.45;1.92;;;7.60;99.90;;;;;;5011640;28;20038;-67
2022/04/28 03:51:54;;;;;;;8.30;2.10;;;7.70;99.90;;;;;;5012322;28;20042;-67
2022/04/28 03:54:21;;;;;;;9.55;2.47;;;7.60;99.90;;;;;;5012157;28;20041;-67
2022/04/28 03:56:47;;;;;;;5.43;1.60;;;7.60;99.90;;;;;;5041488;28;20040;-67
2022/04/28 03:59:13;;;;;;;10.68;1.73;;;7.70;99.90;;;;;;5042246;28;20046;-67
2022/04/28 04:01:38;;;;;;;4.25;1.60;;;7.70;99.90;;;;;;5012270;28;20156;-67
2022/04/28 04:04:04;;;;;;;8.07;1.83;;;7.80;99.90;;;;;;5011334;28;20399;-67
2022/04/28 04:06:32;;;;;;;5.53;1.58;;;7.70;99.90;;;;;;5011521;28;20483;-67
2022/04/28 04:08:58;;;;;;;9.82;1.90;;;7.80;99.90;;;;;;5012947;28;20046;-67
2022/04/28 04:11:23;;;;;;;5.20;1.58;;;7.80;99.90;;;;;;5013324;28;20088;-67
2022/04/28 04:13:50;;;;;;;7.65;2.42;;;7.80;99.90;;;;;;5016332;28;20137;-67
2022/04/28 04:16:15;;;;;;;7.72;1.45;;;7.80;99.90;;;;;;5013036;28;20052;-67
2022/04/28 04:18:41;;;;;;;12.55;2.38;;;7.80;99.90;;;;;;5011067;28;20431;-68
2022/04/28 04:21:07;;;;;;;6.80;1.45;;;7.80;99.90;;;;;;5013039;28;20092;-67
2022/04/28 04:23:32;;;;;;;5.18;1.95;;;7.80;99.90;;;;;;5010129;28;20558;-67
2022/04/28 04:25:59;;;;;;;7.57;1.90;;;7.90;99.90;;;;;;5013548;28;20046;-67
2022/04/28 04:28:24;;;;;;;8.88;2.08;;;7.90;99.90;;;;;;5010716;28;20496;-67
2022/04/28 04:33:35;;;;;;;7.57;2.42;;;7.90;99.90;;;;;;5011028;28;20038;-67
2022/04/28 04:36:01;;;;;;;11.90;2.30;;;7.90;99.90;;;;;;5010164;28;20472;-67
2022/04/28 04:38:26;;;;;;;7.57;1.92;;;8.00;99.90;;;;;;5014280;28;20041;-67
2022/04/28 04:40:52;;;;;;;10.10;1.70;;;8.00;99.90;;;;;;5012847;28;20088;-67
2022/04/28 04:43:17;;;;;;;15.75;2.15;;;8.00;99.90;;;;;;5014014;28;20034;-67
2022/04/28 04:45:43;;;;;;;21.60;3.03;;;8.00;99.90;;;;;;5008483;28;20100;-67
2022/04/28 04:48:12;;;;;;;14.80;2.53;;;8.00;99.90;;;;;;5011490;28;20034;-67
2022/04/28 04:50:39;;;;;;;15.80;2.15;;;8.10;99.90;;;;;;5038170;28;20121;-67
2022/04/28 04:53:05;;;;;;;17.63;2.42;;;8.10;99.90;;;;;;5012291;28;20538;-67
2022/04/28 04:55:32;;;;;;;10.73;1.88;;;8.00;99.90;;;;;;5010838;28;20045;-67
2022/04/28 04:57:58;;;;;;;11.75;3.05;;;8.10;99.90;;;;;;5014464;28;20592;-67
2022/04/28 05:00:23;;;;;;;8.73;1.95;;;8.10;99.90;;;;;;5013482;28;20176;-67
2022/04/28 05:02:49;;;;;;;8.52;1.90;;;8.10;99.90;;;;;;5012741;28;20095;-67
2022/04/28 05:05:15;;;;;;;4.85;2.03;;;8.10;99.90;;;;;;5009063;28;20128;-67
2022/04/28 05:07:41;;;;;;;8.93;2.60;;;8.20;99.90;;;;;;5012959;28;20046;-67
2022/04/28 05:10:07;;;;;;;15.55;3.17;;;8.20;99.90;;;;;;5009935;28;20041;-67
2022/04/28 05:12:33;;;;;;;7.63;1.83;;;8.20;99.90;;;;;;5011022;28;20042;-67
2022/04/28 05:14:58;;;;;;;10.27;2.30;;;8.20;99.90;;;;;;5012467;28;20065;-67
2022/04/28 05:17:24;;;;;;;7.88;2.03;;;8.30;99.90;;;;;;5041338;28;20037;-67
2022/04/28 05:19:49;;;;;;;6.93;2.22;;;8.20;99.90;;;;;;5011068;28;20038;-67
2022/04/28 05:22:15;;;;;;;11.30;2.38;;;8.30;99.90;;;;;;5011018;28;20042;-67
2022/04/28 05:24:41;;;;;;;13.50;3.58;;;8.40;99.90;;;;;;5009947;28;20042;-67
2022/04/28 05:27:06;;;;;;;9.18;2.10;;;8.40;99.90;;;;;;5011946;28;20049;-67
2022/04/28 05:29:32;;;;;;;8.57;2.22;;;8.40;99.90;;;;;;5009878;28;20041;-67
2022/04/28 05:31:58;;;;;;;8.73;2.15;;;8.50;99.90;;;;;;5012331;28;20049;-67
2022/04/28 05:34:23;;;;;;;8.18;2.20;;;8.50;99.90;;;;;;5009272;28;20049;-67
2022/04/28 05:36:50;;;;;;;9.75;1.88;;;8.60;99.90;;;;;;5009582;28;20044;-67
2022/04/28 05:39:16;;;;;;;11.18;2.80;;;8.60;99.90;;;;;;5015316;28;20053;-67
2022/04/28 05:41:43;;;;;;;11.27;2.17;;;8.70;99.90;;;;;;5013262;28;20033;-67
2022/04/28 05:46:53;;;;;;;10.70;2.50;;;8.80;99.90;;;;;;5014091;28;20054;-67
2022/04/28 05:49:19;;;;;;;10.98;2.88;;;8.80;99.90;;;;;;5014643;28;20041;-67
2022/04/28 05:51:44;;;;;;;13.48;2.70;;;8.80;99.90;;;;;;5016308;28;20108;-67
2022/04/28 05:54:10;;;;;;;9.82;2.00;;;8.80;99.90;;;;;;4998246;28;20048;-67
2022/04/28 05:56:36;;;;;;;12.18;2.33;;;8.80;99.90;;;;;;5014891;28;20451;-67
2022/04/28 05:59:02;;;;;;;10.13;2.33;;;8.80;99.90;;;;;;5012993;28;20395;-67
2022/04/28 06:01:28;;;;;;;10.93;2.25;;;8.80;99.90;;;;;;5012952;28;20173;-67
2022/04/28 06:03:53;;;;;;;10.63;2.33;;;8.90;99.90;;;;;;5017287;28;20068;-67
2022/04/28 06:06:19;;;;;;;9.73;2.45;;;8.90;99.90;;;;;;5013337;28;20034;-67
2022/04/28 06:08:45;;;;;;;11.90;2.58;;;8.90;99.90;;;;;;5013769;28;20045;-67
2022/04/28 06:11:11;;;;;;;10.77;2.75;;;9.00;99.90;;;;;;5013771;28;20080;-67
2022/04/28 06:13:37;;;;;;;7.35;2.55;;;9.00;99.90;;;;;;5011376;28;20050;-67
2022/04/28 06:16:03;;;;;;;10.20;2.42;;;9.00;99.90;;;;;;5013505;28;20053;-67
2022/04/28 06:18:29;;;;;;;8.55;2.85;;;9.00;99.90;;;;;;5011701;28;20488;-67
2022/04/28 06:20:54;;;;;;;5.90;2.42;;;9.10;99.90;;;;;;5014588;28;20124;-67
2022/04/28 06:23:20;;;;;;;11.48;3.17;;;9.10;99.90;;;;;;5012704;28;20038;-67
2022/04/28 06:25:47;;;;;;;10.57;2.88;;;9.10;99.90;;;;;;5014172;28;20593;-67
2022/04/28 06:28:13;;;;;;;7.25;2.97;;;9.10;99.90;;;;;;5013261;28;20049;-67
2022/04/28 06:30:39;;;;;;;17.80;3.20;;;9.20;99.90;;;;;;5014244;28;20042;-67
2022/04/28 06:33:08;;;;;;;9.98;2.72;;;9.20;99.90;;;;;;5013051;28;20041;-66
2022/04/28 06:35:33;;;;;;;8.98;2.33;;;9.10;99.90;;;;;;5012698;28;20173;-67
2022/04/28 06:38:00;;;;;;;8.73;2.70;;;9.10;99.90;;;;;;5013446;28;20049;-67
2022/04/28 06:40:26;;;;;;;10.02;2.90;;;9.20;99.90;;;;;;5007214;28;20532;-67
2022/04/28 06:42:52;;;;;;;6.90;2.25;;;9.20;99.90;;;;;;5012202;28;20181;-67
2022/04/28 06:45:18;;;;;;;8.93;2.22;;;9.20;99.90;;;;;;5012542;28;20076;-67
2022/04/28 06:47:44;;;;;;;9.90;2.47;;;9.30;99.90;;;;;;5011502;28;20473;-67
2022/04/28 06:50:10;;;;;;;9.45;2.55;;;9.30;99.90;;;;;;5014785;28;20067;-67
2022/04/28 06:52:37;;;;;;;8.65;2.60;;;9.40;99.90;;;;;;5012444;28;20124;-67
2022/04/28 06:55:04;;;;;;;9.55;2.47;;;9.40;99.90;;;;;;5013617;28;20461;-67
2022/04/28 06:57:30;;;;;;;10.40;4.03;;;9.60;99.90;;;;;;5039258;28;20072;-67
2022/04/28 06:59:55;;;;;;;10.63;3.10;;;9.80;99.90;;;;;;5014618;28;20030;-67
2022/04/28 07:02:21;;;;;;;9.75;2.60;;;9.90;99.90;;;;;;5013899;28;20034;-67
2022/04/28 07:04:47;;;;;;;8.88;2.50;;;10.00;99.90;;;;;;5012661;28;20455;-67
2022/04/28 07:07:14;;;;;;;9.50;2.45;;;10.10;99.90;;;;;;5014383;28;20056;-67
2022/04/28 07:09:40;;;;;;;8.32;2.10;;;10.30;99.90;;;;;;5017009;28;20040;-67
2022/04/28 07:12:06;;;;;;;8.82;2.45;;;10.50;99.90;;;;;;5012953;28;20042;-67
2022/04/28 07:14:33;;;;;;;9.35;2.60;;;10.70;99.90;;;;;;5013045;28;20539;-67
2022/04/28 07:16:59;;;;;;;10.63;2.55;;;10.90;99.90;;;;;;5013155;28;20396;-67
2022/04/28 07:19:25;;;;;;;11.25;1.88;;;11.00;99.90;;;;;;5013185;28;20034;-67
2022/04/28 07:21:51;;;;;;;8.77;2.60;;;11.10;99.90;;;;;;5012298;28;20048;-67
2022/04/28 07:24:16;;;;;;;6.20;2.50;;;11.10;99.90;;;;;;5013091;28;20091;-67
2022/04/28 07:26:42;;;;;;;11.73;2.17;;;11.10;99.90;;;;;;5012945;28;20038;-67
2022/04/28 07:29:07;;;;;;;10.45;2.10;;;11.20;99.90;;;;;;5016337;28;20064;-67
2022/04/28 07:31:33;;;;;;;7.18;1.95;;;11.10;99.90;;;;;;5012643;28;20042;-67
2022/04/28 07:33:58;;;;;;;6.53;1.63;;;11.20;99.90;;;;;;5013663;28;20049;-67
2022/04/28 07:36:24;;;;;;;9.77;2.10;;;11.00;99.90;;;;;;5013120;28;20045;-67
2022/04/28 07:38:50;;;;;;;7.03;1.50;;;10.90;99.90;;;;;;5013133;28;20052;-67
2022/04/28 07:41:15;;;;;;;3.97;1.45;;;10.80;99.90;;;;;;5013215;28;20042;-67
2022/04/28 07:43:41;;;;;;;4.38;1.05;;;10.90;99.90;;;;;;5012900;28;20041;-67
2022/04/28 07:46:07;;;;;;;9.60;1.48;;;10.90;99.90;;;;;;5012294;28;20046;-67
2022/04/28 07:48:32;;;;;;;6.88;0.90;;;10.90;99.90;;;;;;5014597;28;20084;-67
2022/04/28 07:50:58;;;;;;;8.35;1.25;;;11.00;99.90;;;;;;5010819;28;20077;-67
2022/04/28 07:53:23;;;;;;;11.15;1.42;;;10.90;99.90;;;;;;5011816;28;20038;-67
2022/04/28 07:58:34;;;;;;;7.68;0.93;;;10.80;99.90;;;;;;5012034;28;20045;-67
2022/04/28 08:01:00;;;;;;;8.20;1.30;;;10.70;99.90;;;;;;5011266;28;20547;-67
2022/04/28 08:03:26;;;;;;;6.75;1.13;;;10.60;99.90;;;;;;5011863;28;20042;-67
2022/04/28 08:05:53;;;;;;;7.25;1.60;;;10.70;99.90;;;;;;5011431;28;20038;-67
2022/04/28 08:08:20;;;;;;;6.30;1.13;;;10.60;99.90;;;;;;5015046;28;20057;-67
2022/04/28 08:10:45;;;;;;;6.85;1.55;;;10.80;99.90;;;;;;5014056;28;20034;-67
2022/04/28 08:13:11;;;;;;;6.45;1.38;;;10.90;99.90;;;;;;5010718;28;20046;-67
2022/04/28 08:15:37;;;;;;;3.90;1.30;;;10.90;99.90;;;;;;5010981;28;20435;-67
2022/04/28 08:18:04;;;;;;;6.68;1.23;;;10.90;99.90;;;;;;4989805;28;20124;-67
2022/04/28 08:20:30;;;;;;;7.30;1.20;;;11.00;99.90;;;;;;5040040;28;20034;-67
2022/04/28 08:22:55;;;;;;;6.82;1.27;;;10.90;99.90;;;;;;5010086;28;20132;-67
2022/04/28 08:25:21;;;;;;;3.58;1.25;;;10.80;99.90;;;;;;5013532;28;20045;-67
2022/04/28 08:27:47;;;;;;;4.95;1.10;;;10.70;99.90;;;;;;5010703;28;20418;-67
2022/04/28 08:30:12;;;;;;;5.47;1.10;;;10.70;99.90;;;;;;5011908;28;20041;-67
2022/04/28 08:32:38;;;;;;;4.05;0.77;;;10.70;99.90;;;;;;5010034;28;20046;-67
2022/04/28 08:35:04;;;;;;;5.60;1.08;;;10.80;99.90;;;;;;5013958;28;20042;-67
2022/04/28 08:37:29;;;;;;;6.72;1.42;;;11.30;99.90;;;;;;5011629;28;20041;-67
2022/04/28 08:39:55;;;;;;;6.35;1.30;;;11.50;99.90;;;;;;5011024;28;20034;-67
2022/04/28 08:42:22;;;;;;;15.10;1.85;;;11.60;99.90;;;;;;5012875;28;20049;-67
2022/04/28 08:44:49;;;;;;;6.22;1.35;;;11.70;99.90;;;;;;5011477;28;20121;-67
2022/04/28 08:47:15;;;;;;;4.93;1.00;;;11.70;99.90;;;;;;5009959;28;20052;-67
2022/04/28 08:49:44;;;;;;;6.22;1.20;;;11.70;99.90;;;;;;5009536;28;20034;-67
2022/04/28 08:52:12;;;;;;;6.50;1.48;;;12.00;99.90;;;;;;5013312;28;20385;-67
2022/04/28 08:54:39;;;;;;;7.30;1.52;;;12.10;99.90;;;;;;5011966;28;20594;-67
2022/04/28 08:57:05;;;;;;;6.50;1.70;;;12.10;99.90;;;;;;5008827;28;20038;-68
2022/04/28 08:59:31;;;;;;;6.28;1.75;;;12.30;99.90;;;;;;5013472;28;20117;-67
2022/04/28 09:01:57;;;;;;;7.25;1.35;;;12.40;99.90;;;;;;5011278;28;20046;-67
2022/04/28 09:04:27;;;;;;;6.68;1.23;;;12.50;99.90;;;;;;5013280;28;20088;-67
2022/04/28 09:06:55;;;;;;;7.32;1.52;;;12.50;99.90;;;;;;4989311;28;20065;-67
2022/04/28 09:09:22;;;;;;;7.82;1.17;;;12.60;99.90;;;;;;5041537;28;20079;-67
2022/04/28 09:11:48;;;;;;;8.45;2.28;;;12.60;99.90;;;;;;5008932;28;20087;-67
2022/04/28 09:14:17;;;;;;;13.82;2.13;;;12.60;99.90;;;;;;5041282;28;20073;-67
2022/04/28 09:16:49;;;;;;;3.83;0.98;;;12.70;99.90;;;;;;5011354;28;20038;-68
2022/04/28 09:19:22;;;;;;;10.00;1.63;;;12.80;99.90;;;;;;5011744;28;20404;-67
2022/04/28 09:21:50;;;;;;;5.25;1.50;;;12.90;99.90;;;;;;5011532;28;20037;-68
2022/04/28 09:24:16;;;;;;;6.78;1.65;;;13.10;99.90;;;;;;5009945;28;20048;-67
2022/04/28 09:26:43;;;;;;;5.80;1.17;;;13.20;99.90;;;;;;5010660;28;20488;-67
2022/04/28 09:29:13;;;;;;;6.72;1.50;;;13.30;99.90;;;;;;5013965;28;20041;-67
2022/04/28 09:31:42;;;;;;;7.68;1.23;;;13.30;99.90;;;;;;5009524;28;20057;-67
2022/04/28 09:34:10;;;;;;;7.63;1.67;;;13.40;99.90;;;;;;5009534;28;20053;-67
2022/04/28 09:36:37;;;;;;;10.15;1.33;;;13.30;99.90;;;;;;5038687;28;20052;-67
2022/04/28 09:39:05;;;;;;;8.25;1.67;;;13.20;99.90;;;;;;5012339;28;20083;-67
2022/04/28 09:44:16;;;;;;;5.57;1.33;;;13.10;99.90;;;;;;5008850;28;20053;-67
2022/04/28 09:46:45;;;;;;;4.50;1.27;;;13.10;99.90;;;;;;5040259;28;20392;-67
2022/04/28 09:49:13;;;;;;;8.98;1.10;;;13.10;99.90;;;;;;5040547;28;20052;-67
2022/04/28 09:51:41;;;;;;;6.63;1.50;;;13.10;99.90;;;;;;5010243;28;20393;-67
2022/04/28 09:54:11;;;;;;;8.13;1.35;;;13.10;99.90;;;;;;5011078;28;20052;-67
2022/04/28 09:56:39;;;;;;;6.20;1.40;;;13.10;99.90;;;;;;5010217;28;20038;-67
2022/04/28 09:59:06;;;;;;;12.05;1.58;;;13.20;99.90;;;;;;5011137;28;20043;-67
2022/04/28 10:01:33;;;;;;;6.13;1.00;;;13.20;99.90;;;;;;5013517;28;20475;-67
2022/04/28 10:03:59;;;;;;;8.00;1.65;;;13.30;99.90;;;;;;5011201;28;20376;-67
2022/04/28 10:06:25;;;;;;;8.95;1.50;;;13.30;99.90;;;;;;5009663;28;20092;-67
2022/04/28 10:08:56;;;;;;;6.85;1.63;;;13.30;99.90;;;;;;5008848;28;20514;-68
2022/04/28 10:11:24;;;;;;;7.45;1.48;;;13.20;99.90;;;;;;5010976;28;20113;-67
2022/04/28 10:13:51;;;;;;;9.82;2.33;;;13.20;99.90;;;;;;5009367;28;20571;-67
2022/04/28 10:16:20;;;;;;;7.25;1.75;;;13.20;99.90;;;;;;5009947;28;20515;-68
2022/04/28 10:19:03;;;;;;;4.53;1.15;;;13.20;99.90;;;;;;5009923;28;20046;-68
2022/04/28 10:21:56;;;;;;;5.63;1.40;;;13.30;99.90;;;;;;5009831;28;20041;-68
2022/04/28 10:33:03;;;;;;;8.75;1.13;;;13.70;99.90;;;;;;5013009;28;20141;-68
2022/04/28 10:35:39;;;;;;;7.68;1.20;;;13.70;99.90;;;;;;5014517;28;20053;-68
2022/04/28 10:38:12;;;;;;;10.18;1.80;;;13.80;99.90;;;;;;5042262;28;20050;-68
2022/04/28 10:40:40;;;;;;;7.35;1.17;;;14.00;99.90;;;;;;5014555;28;20484;-67
2022/04/28 10:43:23;;;;;;;8.00;1.70;;;14.00;99.90;;;;;;5012322;28;20049;-67
2022/04/28 10:45:51;;;;;;;6.20;1.40;;;14.00;99.90;;;;;;5014138;28;20037;-68
2022/04/28 10:48:38;;;;;;;5.07;1.40;;;13.90;99.90;;;;;;5014824;28;20042;-68
2022/04/28 10:51:13;;;;;;;8.73;2.53;;;13.90;99.90;;;;;;5012735;28;20057;-68
2022/04/28 10:54:09;;;;;;;7.40;1.25;;;14.00;99.90;;;;;;5004623;28;20515;-67
2022/04/28 10:56:44;;;;;;;7.82;1.52;;;14.10;99.90;;;;;;5013694;28;20046;-68
2022/04/28 11:02:09;;;;;;;7.10;1.25;;;14.20;99.90;;;;;;5014146;28;20092;-68
2022/04/28 11:04:34;;;;;;;;;;;14.00;99.60;;;;;;5012943;28;20054;-68
2022/04/28 11:07:06;;;;;;;11.20;2.23;;;14.00;99.60;;;;;;5015074;28;20014;-68
2022/04/28 11:09:34;;;;;;;8.77;2.03;;;14.00;99.90;;;;;;5014826;28;20289;-68
2022/04/28 11:12:06;;;;;;;10.40;1.80;;;14.10;99.90;;;;;;5012095;28;20483;-68
2022/04/28 11:14:46;;;;;;;11.02;2.45;;;14.40;99.90;;;;;;5039165;28;20049;-67
2022/04/28 11:17:13;;;;;;;6.85;1.63;;;14.50;99.70;;;;;;5012304;28;20037;-68
2022/04/28 11:19:40;;;;;;;8.60;1.83;;;14.60;99.90;;;;;;5014294;28;20531;-67
2022/04/28 11:22:06;;;;;;;11.43;3.72;;;14.60;99.40;;;;;;5014736;28;20045;-68
2022/04/28 11:24:32;;;;;;;7.97;2.20;;;14.70;98.60;;;;;;5011788;28;20057;-68
2022/04/28 11:27:01;;;;;;;8.30;2.88;;;14.50;98.50;;;;;;5012728;28;20061;-67
2022/04/28 11:29:31;;;;;;;6.55;2.22;;;14.50;99.90;;;;;;5015169;28;20041;-67
2022/04/28 11:32:00;;;;;;;9.45;2.50;;;14.70;99.90;;;;;;5012306;28;20404;-67
2022/04/28 11:34:29;;;;;;;8.02;2.05;;;14.60;98.90;;;;;;5011356;28;20050;-68
2022/04/28 11:36:55;;;;;;;7.70;2.22;;;14.60;99.60;;;;;;5041818;28;20046;-68
2022/04/28 11:39:24;;;;;;;8.15;2.03;;;14.60;99.90;;;;;;5013035;28;20087;-68
2022/04/28 11:41:52;;;;;;;7.22;2.42;;;14.70;99.90;;;;;;5014400;28;20116;-68
2022/04/28 11:44:19;;;;;;;12.32;2.63;;;14.60;99.30;;;;;;5012517;28;20052;-68
2022/04/28 11:46:44;;;;;;;6.13;2.40;;;14.50;98.80;;;;;;5041697;28;20073;-68
2022/04/28 11:49:10;;;;;;;9.10;1.88;;;14.50;99.90;;;;;;5010257;28;20080;-68
2022/04/28 11:51:36;;;;;;;6.88;2.17;;;14.50;99.90;;;;;;5011648;28;20042;-68
2022/04/28 11:54:03;;;;;;;7.22;2.13;;;14.70;99.90;;;;;;5012842;28;20559;-68
2022/04/28 11:56:31;;;;;;;12.43;2.75;;;14.80;99.90;;;;;;5012665;28;20034;-68
2022/04/28 11:59:00;;;;;;;11.93;2.28;;;15.00;99.90;;;;;;5013659;28;20132;-67
2022/04/28 12:01:30;;;;;;;9.00;2.28;;;15.50;99.90;;;;;;5041081;28;20045;-68
2022/04/28 12:03:57;;;;;;;11.48;2.83;;;15.70;98.50;;;;;;5011332;28;20104;-68
2022/04/28 12:06:24;;;;;;;7.30;2.00;;;15.70;99.40;;;;;;5012536;28;20045;-68
2022/04/28 12:08:57;;;;;;;9.40;2.17;;;15.60;99.50;;;;;;5013234;28;20100;-68
2022/04/28 12:14:23;;;;;;;6.95;1.63;;;15.10;97.40;;;;;;5013244;28;20106;-67
2022/04/28 12:19:57;;;;;;;8.25;2.17;;;15.30;99.90;;;;;;5025834;28;20049;-68
2022/04/28 12:22:27;;;;;;;8.60;2.10;;;15.30;98.20;;;;;;5012758;28;20040;-68
2022/04/28 12:24:53;;;;;;;9.88;2.15;;;15.10;96.70;;;;;;5012508;28;20041;-68
2022/04/28 12:27:18;;;;;;;12.80;2.95;;;14.90;96.80;;;;;;5012251;28;20080;-68
2022/04/28 12:29:52;;;;;;;11.48;2.70;;;14.70;97.50;;;;;;5013488;28;20124;-67
2022/04/28 12:32:20;;;;;;;11.23;1.52;;;14.50;98.70;;;;;;5010060;28;20076;-67
2022/04/28 12:34:45;;;;;;;10.52;2.38;;;14.70;98.60;;;;;;5013204;28;20069;-68
2022/04/28 12:37:24;;;;;;;10.57;1.80;;;14.60;98.60;;;;;;5012722;28;20084;-67
2022/04/28 12:40:00;;;;;;;8.52;2.15;;;14.60;99.00;;;;;;5014174;28;20046;-68
2022/04/28 12:42:29;;;;;;;9.68;2.45;;;14.70;99.80;;;;;;5011750;28;20718;-68
2022/04/28 12:45:01;;;;;;;13.32;2.30;;;14.80;99.10;;;;;;5012053;28;20037;-68
2022/04/28 12:47:40;;;;;;;11.43;2.50;;;14.60;98.80;;;;;;5010404;28;20753;-68
2022/04/28 12:50:20;;;;;;;8.13;2.10;;;14.50;98.50;;;;;;5012664;28;20091;-67
2022/04/28 12:52:46;;;;;;;14.02;2.35;;;14.50;98.60;;;;;;5009605;28;20041;-68
2022/04/28 12:55:11;;;;;;;8.25;2.10;;;14.70;98.80;;;;;;5012559;28;20036;-68
2022/04/28 12:57:37;;;;;;;7.57;1.63;;;14.80;98.90;;;;;;5012777;28;20394;-68
2022/04/28 13:00:07;;;;;;;9.02;2.05;;;14.90;98.40;;;;;;5026637;28;20030;-68
2022/04/28 13:02:33;;;;;;;7.72;1.88;;;14.90;97.80;;;;;;5011127;28;20030;-68
2022/04/28 13:05:15;;;;;;;8.15;1.92;;;15.10;97.70;;;;;;5015356;28;20044;-68
2022/04/28 13:07:44;;;;;;;6.85;1.95;;;15.40;99.90;;;;;;5006279;28;20040;-68
2022/04/28 13:10:13;;;;;;;6.82;1.63;;;15.40;97.90;;;;;;5011817;28;20038;-68
2022/04/28 13:12:39;;;;;;;6.85;1.70;;;15.20;96.10;;;;;;5010436;28;20038;-68
2022/04/28 13:15:06;;;;;;;7.05;1.45;;;14.80;96.90;;;;;;5010211;28;20487;-68
2022/04/28 13:17:33;;;;;;;12.43;3.53;;;14.90;98.70;;;;;;5013142;28;20037;-68
2022/04/28 13:19:58;;;;;;;7.07;1.85;;;15.00;98.00;;;;;;5014170;28;20040;-68
2022/04/28 13:22:24;;;;;;;12.50;2.63;;;14.80;97.90;;;;;;5011281;28;20050;-68
2022/04/28 13:24:50;;;;;;;12.57;2.08;;;14.70;98.10;;;;;;5011451;28;20470;-68
2022/04/28 13:27:16;;;;;;;10.35;2.03;;;14.80;98.00;;;;;;5012655;28;20050;-68
2022/04/28 13:29:42;;;;;;;10.70;1.90;;;14.90;97.60;;;;;;4994977;28;20050;-68
2022/04/28 13:32:08;;;;;;;6.30;1.88;;;14.80;98.60;;;;;;5010420;28;20550;-68